.
WxDataArchive / Data Records for 2006-08-04
2006-08-03 August 2006 2006-08-05

Data Records for Friday, 04 August 2006

Time	Temp	Chill	HIndex	Humid	Dewpt	 Wind 	HiWind	WindDir	Rain 	Barom 
-----	----	-----	------	-----	-----	------	------	-------	-----	----- 
00:00	69.3	69.3	69.3	89	65.9	0	2	270	0.00	29.912 
00:05	69.1	69.1	69.1	90	66.0	0	1	270	0.00	29.912 
00:10	68.9	68.9	68.9	90	65.8	0	1	270	0.00	29.912 
00:15	68.9	68.9	68.9	90	65.8	0	1	270	0.00	29.922 
00:20	68.8	68.8	68.8	91	66.1	0	1	270	0.00	29.922 
00:25	68.8	68.8	68.8	91	66.1	0	1	270	0.00	29.922 
00:30	68.6	68.6	68.6	90	65.5	0	1	270	0.00	29.926 
00:35	68.4	68.4	68.4	91	65.7	0	0	---	0.00	29.926 
00:40	68.3	68.3	68.3	91	65.6	0	1	270	0.00	29.926 
00:45	68.1	68.1	68.1	91	65.4	0	1	270	0.00	29.927 
00:50	67.9	67.9	67.9	91	65.2	0	1	270	0.00	29.927 
00:55	67.8	67.8	67.8	91	65.1	0	1	270	0.00	29.927 
01:00	67.6	67.6	67.6	91	64.9	0	0	---	0.00	29.932 
01:05	67.6	67.6	67.6	91	64.9	0	0	---	0.00	29.932 
01:10	67.4	67.4	67.4	91	64.7	0	1	270	0.00	29.932 
01:15	67.3	67.3	67.3	91	64.6	0	1	270	0.00	29.933 
01:20	67.3	67.3	67.3	92	64.9	0	0	---	0.00	29.933 
01:25	67.1	67.1	67.1	92	64.7	0	0	---	0.00	29.933 
01:30	66.9	66.9	66.9	92	64.5	0	0	---	0.00	29.938 
01:35	66.9	66.9	66.9	92	64.5	0	0	---	0.00	29.938 
01:40	66.8	66.8	66.8	92	64.4	0	0	---	0.00	29.938 
01:45	66.6	66.6	66.6	92	64.2	0	0	---	0.00	29.941 
01:50	66.4	66.4	66.4	92	64.0	0	0	---	0.00	29.941 
01:55	66.4	66.4	66.4	93	64.3	0	0	---	0.00	29.941 
02:00	66.3	66.3	66.3	93	64.2	0	0	---	0.00	29.946 
02:05	66.3	66.3	66.3	93	64.2	0	0	---	0.00	29.946 
02:10	66.3	66.3	66.3	93	64.2	0	1	270	0.00	29.946 
02:15	66.3	66.3	66.3	93	64.2	0	0	---	0.00	29.947 
02:20	66.1	66.1	66.1	94	64.3	0	0	---	0.00	29.947 
02:25	66.1	66.1	66.1	94	64.3	0	0	---	0.00	29.947 
02:30	66.0	66.0	66.0	94	64.2	0	0	---	0.00	29.948 
02:35	66.0	66.0	66.0	94	64.2	0	0	---	0.00	29.948 
02:40	65.8	65.8	65.8	94	64.0	0	0	---	0.00	29.948 
02:45	65.8	65.8	65.8	94	64.0	0	0	---	0.00	29.948 
02:50	65.6	65.6	65.6	94	63.8	0	0	---	0.00	29.948 
02:55	65.6	65.6	65.6	94	63.8	0	0	---	0.00	29.948 
03:00	65.5	65.5	65.5	94	63.7	0	0	---	0.00	29.945 
03:05	65.3	65.3	65.3	94	63.5	0	0	---	0.00	29.945 
03:10	65.3	65.3	65.3	94	63.5	0	0	---	0.00	29.945 
03:15	65.2	65.2	65.2	94	63.4	0	0	---	0.00	29.942 
03:20	65.2	65.2	65.2	94	63.4	0	0	---	0.00	29.942 
03:25	65.0	65.0	65.0	94	63.2	0	0	---	0.00	29.942 
03:30	64.8	64.8	64.8	94	63.0	0	0	---	0.00	29.943 
03:35	64.7	64.7	64.7	94	62.9	0	0	---	0.00	29.943 
03:40	64.7	64.7	64.7	94	62.9	0	0	---	0.00	29.943 
03:45	64.7	64.7	64.7	94	62.9	0	0	---	0.00	29.951 
03:50	64.5	64.5	64.5	94	62.7	0	0	---	0.00	29.951 
03:55	64.5	64.5	64.5	95	63.0	0	0	---	0.00	29.951 
04:00	64.7	64.7	64.7	95	63.2	0	0	---	0.00	29.947 
04:05	64.5	64.5	64.5	95	63.0	0	0	---	0.00	29.947 
04:10	64.5	64.5	64.5	95	63.0	0	0	---	0.00	29.947 
04:15	64.3	64.3	64.3	95	62.8	0	0	---	0.00	29.948 
04:20	64.3	64.3	64.3	95	62.8	0	0	---	0.00	29.948 
04:25	64.5	64.5	64.5	95	63.0	0	0	---	0.00	29.948 
04:30	64.7	64.7	64.7	95	63.2	0	0	---	0.00	29.954 
04:35	64.8	64.8	64.8	95	63.3	0	0	---	0.00	29.954 
04:40	65.0	65.0	65.0	96	63.8	0	0	---	0.00	29.954 
04:45	65.0	65.0	65.0	96	63.8	0	0	---	0.00	29.955 
04:50	64.8	64.8	64.8	96	63.6	0	0	---	0.00	29.955 
04:55	64.7	64.7	64.7	96	63.5	0	0	---	0.00	29.955 
05:00	64.7	64.7	64.7	96	63.5	0	0	---	0.00	29.956 
05:05	64.8	64.8	64.8	96	63.6	0	0	---	0.00	29.956 
05:10	64.8	64.8	64.8	96	63.6	0	0	---	0.00	29.956 
05:15	64.8	64.8	64.8	96	63.6	0	0	---	0.00	29.963 
05:20	65.0	65.0	65.0	96	63.8	0	0	---	0.00	29.963 
05:25	65.0	65.0	65.0	96	63.8	0	0	---	0.00	29.963 
05:30	65.0	65.0	65.0	96	63.8	0	0	---	0.00	29.969 
05:35	65.0	65.0	65.0	96	63.8	0	0	---	0.00	29.969 
05:40	65.0	65.0	65.0	96	63.8	0	0	---	0.00	29.969 
05:45	65.0	65.0	65.0	96	63.8	0	0	---	0.00	29.971 
05:50	65.0	65.0	65.0	96	63.8	0	0	---	0.00	29.971 
05:55	65.0	65.0	65.0	96	63.8	0	0	---	0.00	29.971 
06:00	65.0	65.0	65.0	96	63.8	0	0	---	0.00	29.973 
06:05	65.0	65.0	65.0	96	63.8	0	0	---	0.00	29.973 
06:10	65.0	65.0	65.0	96	63.8	0	0	---	0.00	29.973 
06:15	65.0	65.0	65.0	96	63.8	0	0	---	0.00	29.981 
06:20	65.0	65.0	65.0	96	63.8	0	0	---	0.00	29.981 
06:25	65.0	65.0	65.0	96	63.8	0	0	---	0.00	29.981 
06:30	65.0	65.0	65.0	96	63.8	0	0	---	0.00	29.989 
06:35	64.8	64.8	64.8	96	63.6	0	0	---	0.00	29.989 
06:40	64.8	64.8	64.8	96	63.6	0	0	---	0.00	29.989 
06:45	64.7	64.7	64.7	96	63.5	0	0	---	0.00	29.996 
06:50	64.7	64.7	64.7	96	63.5	0	0	---	0.00	29.996 
06:55	64.5	64.5	64.5	96	63.3	0	0	---	0.00	29.996 
07:00	64.5	64.5	64.5	96	63.3	0	0	---	0.00	30.001 
07:05	64.5	64.5	64.5	96	63.3	0	0	---	0.00	30.001 
07:10	64.5	64.5	64.5	96	63.3	0	0	---	0.00	30.001 
07:15	64.7	64.7	64.7	96	63.5	0	1	270	0.00	30.008 
07:20	64.7	64.7	64.7	96	63.5	0	0	---	0.00	30.008 
07:25	64.8	64.8	64.8	96	63.6	0	1	270	0.00	30.008 
07:30	65.0	65.0	65.0	96	63.8	0	1	270	0.00	30.013 
07:35	65.0	65.0	65.0	95	63.5	0	1	270	0.00	30.013 
07:40	65.2	65.2	65.2	95	63.7	0	1	270	0.00	30.013 
07:45	65.5	65.5	65.5	94	63.7	0	1	270	0.00	30.016 
07:50	65.6	65.6	65.6	93	63.5	0	2	270	0.00	30.016 
07:55	65.8	65.8	65.8	92	63.4	0	2	315	0.00	30.016 
08:00	66.1	66.1	66.1	91	63.4	0	1	315	0.00	30.016 
08:05	66.6	66.6	66.6	89	63.3	0	2	315	0.00	30.016 
08:10	66.9	66.9	66.9	88	63.2	0	2	292	0.00	30.016 
08:15	67.4	67.4	67.4	87	63.4	0	2	292	0.00	30.022 
08:20	67.9	67.9	67.9	86	63.5	0	1	292	0.00	30.022 
08:25	68.4	68.4	68.4	85	63.7	0	2	292	0.00	30.022 
08:30	68.8	68.8	68.8	84	63.8	0	2	292	0.00	30.021 
08:35	69.3	69.3	69.3	84	64.2	0	1	292	0.00	30.021 
08:40	69.8	69.8	69.8	82	64.0	0	1	292	0.00	30.021 
08:45	70.3	70.3	70.3	80	63.8	0	1	292	0.00	30.021 
08:50	70.4	70.4	70.4	78	63.2	0	2	292	0.00	30.021 
08:55	70.6	70.6	70.6	78	63.4	0	2	292	0.00	30.021 
09:00	71.1	71.1	71.1	80	64.6	0	2	292	0.00	30.024 
09:05	71.6	71.6	71.6	77	64.0	0	1	292	0.00	30.024 
09:10	72.1	72.1	72.1	75	63.7	0	2	292	0.00	30.024 
09:15	72.5	72.5	72.5	74	63.7	0	1	292	0.00	30.031 
09:20	73.0	73.0	73.0	75	64.6	0	1	292	0.00	30.031 
09:25	73.7	73.7	73.7	73	64.5	0	1	292	0.00	30.031 
09:30	73.9	73.9	73.9	69	63.1	0	3	0	0.00	30.033 
09:35	74.0	74.0	74.0	68	62.8	0	2	0	0.00	30.033 
09:40	74.4	74.4	74.4	70	64.0	0	1	0	0.00	30.033 
09:45	74.7	74.7	74.7	67	63.0	0	1	338	0.00	30.030 
09:50	75.1	75.1	77.1	66	62.9	0	2	338	0.00	30.030 
09:55	75.4	75.4	77.3	66	63.2	0	2	315	0.00	30.030 
10:00	75.8	75.8	77.8	63	62.3	0	3	292	0.00	30.031 
10:05	76.1	76.1	78.1	61	61.7	1	3	292	0.00	30.031 
10:10	76.7	76.7	78.5	63	63.1	0	2	22	0.00	30.031 
10:15	77.2	77.2	79.0	62	63.2	0	4	270	0.00	30.031 
10:20	77.2	77.2	78.9	60	62.2	1	3	270	0.00	30.031 
10:25	77.0	77.0	78.8	60	62.0	1	2	270	0.00	30.031 
10:30	77.4	77.4	79.1	60	62.4	1	5	270	0.00	30.033 
10:35	77.6	77.6	79.2	58	61.6	1	3	45	0.00	30.033 
10:40	77.4	77.4	79.0	54	59.4	1	2	315	0.00	30.033 
10:45	77.6	77.6	79.2	56	60.6	1	3	270	0.00	30.036 
10:50	77.9	77.9	79.3	54	59.9	1	3	315	0.00	30.036 
10:55	78.5	78.5	79.9	56	61.5	1	4	292	0.00	30.036 
11:00	78.6	78.6	80.0	55	61.1	0	2	292	0.00	30.039 
11:05	79.2	79.2	80.3	52	60.0	1	3	270	0.00	30.039 
11:10	79.8	79.8	80.8	52	60.6	1	2	45	0.00	30.039 
11:15	80.1	80.1	81.0	51	60.3	0	2	45	0.00	30.045 
11:20	80.1	80.1	81.3	54	61.9	1	4	315	0.00	30.045 
11:25	80.1	80.1	81.0	51	60.3	0	2	22	0.00	30.045 
11:30	80.3	80.3	81.4	53	61.6	0	2	315	0.00	30.049 
11:35	81.2	81.2	81.7	48	59.6	1	5	90	0.00	30.049 
11:40	81.6	81.6	81.8	46	58.8	1	4	90	0.00	30.049 
11:45	82.0	82.0	82.6	49	60.9	1	3	112	0.00	30.048 
11:50	82.2	82.2	83.0	50	61.7	0	3	112	0.00	30.048 
11:55	82.4	82.4	83.4	51	62.4	1	3	112	0.00	30.048 
12:00	82.8	82.8	83.5	49	61.7	1	5	112	0.00	30.047 
12:05	83.2	83.2	83.8	48	61.4	1	4	90	0.00	30.047 
12:10	83.0	83.0	83.1	45	59.4	0	3	90	0.00	30.047 
12:15	83.0	83.0	83.5	48	61.3	1	4	90	0.00	30.048 
12:20	83.0	83.0	82.9	44	58.8	2	4	45	0.00	30.048 
12:25	83.2	83.2	83.8	48	61.4	1	4	112	0.00	30.048 
12:30	83.4	83.4	83.7	46	60.4	2	4	112	0.00	30.047 
12:35	83.8	83.8	83.7	44	59.5	1	4	112	0.00	30.047 
12:40	83.8	83.8	83.4	42	58.2	1	4	112	0.00	30.047 
12:45	83.8	83.8	84.1	46	60.8	1	3	270	0.00	30.045 
12:50	84.0	84.0	83.6	42	58.4	1	5	270	0.00	30.045 
12:55	84.0	84.0	84.5	47	61.6	1	4	90	0.00	30.045 
13:00	84.1	84.1	84.3	45	60.4	2	4	90	0.00	30.046 
13:05	84.0	84.0	83.8	43	59.1	2	5	112	0.00	30.046 
13:10	84.1	84.1	84.8	48	62.3	2	4	112	0.00	30.046 
13:15	84.3	84.3	84.1	43	59.3	2	6	90	0.00	30.043 
13:20	84.5	84.5	84.3	43	59.5	2	5	68	0.00	30.043 
13:25	84.3	84.3	83.9	42	58.7	2	4	112	0.00	30.043 
13:30	84.1	84.1	83.7	42	58.5	2	4	112	0.00	30.042 
13:35	84.5	84.5	84.9	46	61.4	1	4	112	0.00	30.042 
13:40	85.1	85.1	85.9	47	62.6	1	4	135	0.00	30.042 
13:45	84.9	84.9	84.0	39	57.1	0	2	135	0.00	30.044 
13:50	85.1	85.1	84.8	42	59.4	1	6	135	0.00	30.044 
13:55	85.1	85.1	85.0	43	60.1	1	3	68	0.00	30.044 
14:00	85.3	85.3	84.7	40	58.2	0	3	45	0.00	30.043 
14:05	85.3	85.3	84.5	39	57.5	2	4	90	0.00	30.043 
14:10	84.7	84.7	84.6	43	59.7	3	4	90	0.00	30.043 
14:15	84.7	84.7	83.7	38	56.2	2	5	90	0.00	30.041 
14:20	85.3	85.3	84.1	37	56.0	1	4	90	0.00	30.041 
14:25	85.7	85.7	85.3	41	59.3	1	2	112	0.00	30.041 
14:30	85.9	85.9	85.1	39	58.0	1	6	112	0.00	30.034 
14:35	85.9	85.9	85.5	41	59.4	1	3	112	0.00	30.034 
14:40	85.7	85.7	85.3	41	59.3	0	2	45	0.00	30.034 
14:45	86.1	86.1	85.4	39	58.2	1	4	45	0.00	30.033 
14:50	86.1	86.1	85.2	38	57.5	1	4	90	0.00	30.033 
14:55	86.1	86.1	85.6	40	58.9	0	2	45	0.00	30.033 
15:00	85.9	85.9	84.2	34	54.2	1	4	90	0.00	30.033 
15:05	86.1	86.1	85.8	41	59.6	0	1	90	0.00	30.033 
15:10	86.5	86.5	85.8	39	58.6	0	3	90	0.00	30.033 
15:15	86.1	86.1	85.4	39	58.2	2	4	90	0.00	30.033 
15:20	86.3	86.3	85.4	38	57.7	0	2	90	0.00	30.033 
15:25	86.3	86.3	85.6	39	58.4	1	2	68	0.00	30.033 
15:30	86.3	86.3	85.2	37	56.9	0	2	68	0.00	30.032 
15:35	86.7	86.7	86.0	39	58.7	1	2	68	0.00	30.032 
15:40	87.0	87.0	85.8	36	56.8	1	2	68	0.00	30.032 
15:45	87.0	87.0	86.6	40	59.7	1	3	338	0.00	30.028 
15:50	87.4	87.4	85.6	33	54.7	1	3	112	0.00	30.028 
15:55	87.6	87.6	86.7	37	58.1	0	2	112	0.00	30.028 
16:00	87.4	87.4	86.4	37	57.9	1	3	112	0.00	30.024 
16:05	87.4	87.4	86.4	37	57.9	1	3	112	0.00	30.024 
16:10	87.4	87.4	85.8	34	55.5	1	3	90	0.00	30.024 
16:15	87.0	87.0	85.0	32	53.5	2	4	90	0.00	30.026 
16:20	86.7	86.7	86.0	39	58.7	1	3	90	0.00	30.026 
16:25	86.7	86.7	85.4	36	56.5	1	4	90	0.00	30.026 
16:30	86.3	86.3	85.0	36	56.2	2	4	90	0.00	30.019 
16:35	86.3	86.3	85.6	39	58.4	1	3	68	0.00	30.019 
16:40	87.0	87.0	85.8	36	56.8	1	3	90	0.00	30.019 
16:45	87.2	87.2	86.0	36	57.0	0	1	90	0.00	30.016 
16:50	87.2	87.2	85.6	34	55.4	0	2	22	0.00	30.016 
16:55	87.0	87.0	85.8	36	56.8	0	1	22	0.00	30.016 
17:00	86.7	86.7	86.0	39	58.7	0	2	22	0.00	30.016 
17:05	86.5	86.5	84.8	34	54.8	0	2	22	0.00	30.016 
17:10	86.5	86.5	84.8	34	54.8	0	1	0	0.00	30.016 
17:15	86.7	86.7	85.4	36	56.5	1	2	0	0.00	30.013 
17:20	87.0	87.0	86.0	37	57.5	0	3	45	0.00	30.013 
17:25	86.7	86.7	85.1	34	54.9	1	4	112	0.00	30.013 
17:30	86.5	86.5	85.2	36	56.3	1	3	90	0.00	30.016 
17:35	86.3	86.3	85.4	38	57.7	0	2	90	0.00	30.016 
17:40	86.1	86.1	85.2	38	57.5	0	2	68	0.00	30.016 
17:45	86.1	86.1	84.6	35	55.2	1	2	68	0.00	30.018 
17:50	85.9	85.9	84.4	35	55.0	0	2	68	0.00	30.018 
17:55	85.7	85.7	84.7	38	57.1	0	3	68	0.00	30.018 
18:00	85.7	85.7	84.4	36	55.6	0	1	68	0.00	30.017 
18:05	85.3	85.3	83.6	34	53.7	0	1	45	0.00	30.017 
18:10	85.3	85.3	84.0	36	55.3	0	1	45	0.00	30.017 
18:15	85.3	85.3	84.3	38	56.8	0	0	---	0.00	30.018 
18:20	85.1	85.1	83.9	37	55.9	0	1	45	0.00	30.018 
18:25	84.7	84.7	83.7	38	56.2	0	2	45	0.00	30.018 
18:30	84.7	84.7	83.8	39	57.0	0	3	45	0.00	30.018 
18:35	84.7	84.7	83.7	38	56.2	0	2	45	0.00	30.018 
18:40	84.5	84.5	83.2	36	54.6	0	2	45	0.00	30.018 
18:45	84.3	84.3	83.0	36	54.4	0	1	45	0.00	30.019 
18:50	84.1	84.1	82.8	36	54.2	0	1	45	0.00	30.019 
18:55	84.1	84.1	82.9	37	55.0	0	1	45	0.00	30.019 
19:00	84.0	84.0	82.8	37	54.9	0	3	45	0.00	30.019 
19:05	83.8	83.8	82.7	37	54.7	0	1	45	0.00	30.019 
19:10	83.6	83.6	82.8	39	56.0	0	1	45	0.00	30.019 
19:15	83.4	83.4	82.4	38	55.1	0	0	---	0.00	30.022 
19:20	83.2	83.2	82.3	38	54.9	0	1	45	0.00	30.022 
19:25	83.2	83.2	82.3	38	54.9	0	1	45	0.00	30.022 
19:30	83.0	83.0	82.6	42	57.5	0	0	---	0.00	30.022 
19:35	82.8	82.8	82.2	40	56.0	0	0	---	0.00	30.022 
19:40	82.6	82.6	82.1	41	56.5	0	0	---	0.00	30.022 
19:45	82.4	82.4	81.9	41	56.3	0	0	---	0.00	30.031 
19:50	82.4	82.4	82.0	42	57.0	0	0	---	0.00	30.031 
19:55	82.2	82.2	82.0	43	57.4	0	0	---	0.00	30.031 
20:00	81.8	81.8	81.6	43	57.1	0	0	---	0.00	30.031 
20:05	81.8	81.8	81.8	44	57.7	0	0	---	0.00	30.031 
20:10	81.4	81.4	81.4	44	57.4	0	0	---	0.00	30.031 
20:15	81.2	81.2	81.5	46	58.4	0	0	---	0.00	30.028 
20:20	81.1	81.1	81.4	46	58.3	0	0	---	0.00	30.028 
20:25	80.7	80.7	81.0	46	58.0	0	0	---	0.00	30.028 
20:30	80.3	80.3	81.0	49	59.4	0	0	---	0.00	30.030 
20:35	79.9	79.9	80.9	52	60.7	0	0	---	0.00	30.030 
20:40	79.6	79.6	80.7	53	60.9	0	0	---	0.00	30.030 
20:45	78.8	78.8	80.1	54	60.7	0	0	---	0.00	30.027 
20:50	78.3	78.3	79.7	55	60.8	0	0	---	0.00	30.027 
20:55	77.9	77.9	79.4	56	60.9	0	0	---	0.00	30.027 
21:00	77.4	77.4	79.1	57	61.0	0	0	---	0.00	30.030 
21:05	76.8	76.8	78.6	57	60.4	0	0	---	0.00	30.030 
21:10	76.3	76.3	78.3	57	59.9	0	0	---	0.00	30.030 
21:15	76.0	76.0	78.0	58	60.1	0	0	---	0.00	30.025 
21:20	75.6	75.6	77.8	58	59.8	0	0	---	0.00	30.025 
21:25	75.3	75.3	77.6	58	59.5	0	0	---	0.00	30.025 
21:30	74.9	74.9	74.9	60	60.1	0	0	---	0.00	30.028 
21:35	74.7	74.7	74.7	60	59.9	0	0	---	0.00	30.028 
21:40	74.6	74.6	74.6	60	59.8	0	0	---	0.00	30.028 
21:45	74.4	74.4	74.4	60	59.6	0	0	---	0.00	30.032 
21:50	74.2	74.2	74.2	61	59.9	0	0	---	0.00	30.032 
21:55	74.0	74.0	74.0	63	60.6	0	0	---	0.00	30.032 
22:00	74.0	74.0	74.0	64	61.0	0	0	---	0.00	30.034 
22:05	73.9	73.9	73.9	64	60.9	0	0	---	0.00	30.034 
22:10	73.7	73.7	73.7	65	61.2	0	0	---	0.00	30.034 
22:15	73.5	73.5	73.5	65	61.0	0	0	---	0.00	30.036 
22:20	73.2	73.2	73.2	65	60.7	0	0	---	0.00	30.036 
22:25	72.8	72.8	72.8	66	60.8	0	0	---	0.00	30.036 
22:30	72.5	72.5	72.5	67	60.9	0	0	---	0.00	30.040 
22:35	72.3	72.3	72.3	68	61.1	0	0	---	0.00	30.040 
22:40	72.1	72.1	72.1	68	60.9	0	0	---	0.00	30.040 
22:45	72.1	72.1	72.1	68	60.9	0	0	---	0.00	30.046 
22:50	72.0	72.0	72.0	70	61.7	0	0	---	0.00	30.046 
22:55	72.0	72.0	72.0	70	61.7	0	0	---	0.00	30.046 
23:00	71.8	71.8	71.8	72	62.3	0	0	---	0.00	30.047 
23:05	71.8	71.8	71.8	72	62.3	0	0	---	0.00	30.047 
23:10	71.8	71.8	71.8	72	62.3	0	0	---	0.00	30.047 
23:15	71.8	71.8	71.8	72	62.3	0	0	---	0.00	30.044 
23:20	71.6	71.6	71.6	73	62.5	0	0	---	0.00	30.044 
23:25	71.3	71.3	71.3	74	62.6	0	0	---	0.00	30.044 
23:30	71.1	71.1	71.1	74	62.4	0	0	---	0.00	30.044 
23:35	70.9	70.9	70.9	75	62.6	0	0	---	0.00	30.044 
23:40	70.6	70.6	70.6	76	62.7	0	0	---	0.00	30.044 
23:45	70.4	70.4	70.4	76	62.5	0	0	---	0.00	30.045 
23:50	70.3	70.3	70.3	77	62.7	0	0	---	0.00	30.045 
23:55	70.3	70.3	70.3	77	62.7	0	0	---	0.00	30.045 

CoCoRaHS
IN-AL-39
A2 Web Hosting
Creative Commons License
GoDaddy
Look for:

loaded 2017-12-13 02:42:11 • last modified 2010-11-18 10:43:29
Privacy PolicyDisclaimer
• wx.awcolley.com is powered by PmWiki v.2002016 •
• all content (unless otherwise noted) © 2017 A W Colley